createdAt,value
2023-02-12T00:00:08.700Z,8.48
2023-02-12T00:02:42.188Z,7.35
2023-02-12T00:05:09.410Z,7.68
2023-02-12T00:07:36.488Z,7.45
2023-02-12T00:10:04.255Z,8.40
2023-02-12T00:12:31.365Z,7.97
2023-02-12T00:14:58.463Z,8.10
2023-02-12T00:17:25.573Z,7.70
2023-02-12T00:19:52.633Z,8.65
2023-02-12T00:22:19.723Z,8.48
2023-02-12T00:24:46.769Z,8.07
2023-02-12T00:27:13.906Z,8.73
2023-02-12T00:29:40.986Z,8.27
2023-02-12T00:32:08.090Z,8.82
2023-02-12T00:34:35.216Z,7.95
2023-02-12T00:37:02.359Z,8.75
2023-02-12T00:39:29.551Z,8.32
2023-02-12T00:41:56.687Z,8.20
2023-02-12T00:44:23.880Z,8.23
2023-02-12T00:46:51.179Z,8.32
2023-02-12T00:49:20.285Z,8.45
2023-02-12T00:51:47.382Z,8.25
2023-02-12T00:54:14.568Z,8.50
2023-02-12T00:56:41.742Z,7.80
2023-02-12T00:59:08.887Z,7.28
2023-02-12T01:01:36.210Z,7.97
2023-02-12T01:04:04.287Z,7.82
2023-02-12T01:06:31.417Z,7.95
2023-02-12T01:08:58.485Z,8.63
2023-02-12T01:11:25.601Z,8.27
2023-02-12T01:13:53.081Z,8.43
2023-02-12T01:16:22.483Z,8.30
2023-02-12T01:18:50.360Z,8.30
2023-02-12T01:21:19.028Z,8.05
2023-02-12T01:23:46.715Z,8.55
2023-02-12T01:26:14.907Z,8.15
2023-02-12T01:28:43.289Z,9.05
2023-02-12T01:31:12.006Z,7.93
2023-02-12T01:33:39.332Z,8.20
2023-02-12T01:36:06.724Z,8.95
2023-02-12T01:38:33.871Z,8.80
2023-02-12T01:41:06.136Z,9.13
2023-02-12T01:43:34.270Z,9.32
2023-02-12T01:46:01.911Z,8.30
2023-02-12T01:48:30.971Z,8.35
2023-02-12T01:50:58.480Z,7.78
2023-02-12T01:53:29.950Z,8.77
2023-02-12T01:55:59.035Z,7.60
2023-02-12T01:58:27.524Z,7.72
2023-02-12T02:00:54.726Z,9.07
2023-02-12T02:03:22.290Z,8.45
2023-02-12T02:06:16.337Z,8.20
2023-02-12T02:08:43.482Z,8.30
2023-02-12T02:11:29.856Z,7.97
2023-02-12T02:14:19.389Z,9.23
2023-02-12T02:16:51.281Z,8.77
2023-02-12T02:19:22.032Z,9.15
2023-02-12T02:22:02.809Z,9.30
2023-02-12T02:24:38.828Z,9.07
2023-02-12T02:27:30.860Z,8.57
2023-02-12T02:30:19.134Z,8.77
2023-02-12T02:32:52.266Z,8.80
2023-02-12T02:35:25.112Z,9.65
2023-02-12T02:37:57.535Z,9.35
2023-02-12T02:40:27.645Z,9.10
2023-02-12T02:43:09.796Z,9.35
2023-02-12T02:45:39.921Z,9.73
2023-02-12T02:48:13.208Z,9.10
2023-02-12T02:53:27.316Z,8.98
2023-02-12T02:55:56.201Z,8.45
2023-02-12T02:58:27.254Z,7.68
2023-02-12T03:01:17.927Z,8.93
2023-02-12T03:03:54.763Z,10.07
2023-02-12T03:06:42.075Z,8.98
2023-02-12T03:09:23.698Z,8.85
2023-02-12T03:11:51.293Z,8.48
2023-02-12T03:14:27.384Z,8.65
2023-02-12T03:17:11.394Z,9.63
2023-02-12T03:19:42.891Z,9.43
2023-02-12T03:22:11.723Z,9.52
2023-02-12T03:24:54.496Z,9.15
2023-02-12T03:27:33.290Z,10.20
2023-02-12T03:30:00.939Z,9.68
2023-02-12T03:32:43.280Z,9.93
2023-02-12T03:35:17.239Z,9.52
2023-02-12T03:38:06.528Z,10.40
2023-02-12T03:40:35.601Z,9.57
2023-02-12T03:43:09.560Z,9.55
2023-02-12T03:45:51.014Z,10.15
2023-02-12T03:48:25.116Z,9.57
2023-02-12T03:50:52.190Z,9.55
2023-02-12T03:53:19.491Z,10.48
2023-02-12T03:55:49.022Z,9.95
2023-02-12T03:58:19.064Z,10.20
2023-02-12T04:00:46.691Z,10.52
2023-02-12T04:03:13.991Z,10.95
2023-02-12T04:05:41.108Z,10.02
2023-02-12T04:08:09.009Z,10.90
2023-02-12T04:11:03.876Z,9.93
2023-02-12T04:13:39.905Z,10.48
2023-02-12T04:16:26.147Z,9.73
2023-02-12T04:18:54.202Z,10.20
2023-02-12T04:21:24.100Z,10.65
2023-02-12T04:23:59.749Z,10.40
2023-02-12T04:26:43.575Z,10.55
2023-02-12T04:29:33.133Z,10.48
2023-02-12T04:32:06.151Z,11.20
2023-02-12T04:34:33.284Z,11.50
2023-02-12T04:37:06.620Z,11.02
2023-02-12T04:39:36.556Z,10.65
2023-02-12T04:42:04.114Z,11.55
2023-02-12T04:44:32.807Z,10.88
2023-02-12T04:47:00.497Z,10.95
2023-02-12T04:49:28.138Z,12.00
2023-02-12T04:51:55.244Z,11.02
2023-02-12T04:54:23.147Z,10.68
2023-02-12T04:56:50.487Z,11.32
2023-02-12T04:59:17.618Z,10.90
2023-02-12T05:01:45.494Z,11.35
2023-02-12T05:04:14.461Z,10.68
2023-02-12T05:06:41.979Z,10.35
2023-02-12T05:09:09.641Z,10.82
2023-02-12T05:11:36.753Z,10.98
2023-02-12T05:14:03.900Z,10.50
2023-02-12T05:16:31.003Z,11.32
2023-02-12T05:18:58.301Z,10.85
2023-02-12T05:21:25.408Z,11.77
2023-02-12T05:23:52.487Z,10.85
2023-02-12T05:26:22.247Z,10.77
2023-02-12T05:28:49.481Z,11.35
2023-02-12T05:31:21.032Z,10.50
2023-02-12T05:33:48.940Z,11.35
2023-02-12T05:36:17.522Z,10.63
2023-02-12T05:38:45.250Z,11.23
2023-02-12T05:41:13.640Z,11.35
2023-02-12T05:43:41.181Z,11.57
2023-02-12T05:46:08.747Z,11.10
2023-02-12T05:48:36.183Z,11.25
2023-02-12T05:51:07.272Z,10.60
2023-02-12T05:53:34.441Z,10.60
2023-02-12T05:56:13.043Z,11.60
2023-02-12T05:58:40.808Z,11.38
2023-02-12T06:01:15.501Z,10.73
2023-02-12T06:03:42.855Z,11.77
2023-02-12T06:06:10.412Z,10.98
2023-02-12T06:08:37.972Z,11.55
2023-02-12T06:11:06.116Z,11.77
2023-02-12T06:13:33.648Z,11.02
2023-02-12T06:16:01.160Z,10.82
2023-02-12T06:18:28.803Z,12.20
2023-02-12T06:20:56.313Z,11.50
2023-02-12T06:23:24.245Z,11.75
2023-02-12T06:25:51.971Z,10.80
2023-02-12T06:28:19.052Z,11.20
2023-02-12T06:30:46.278Z,11.00
2023-02-12T06:33:13.412Z,12.07
2023-02-12T06:35:40.535Z,10.52
2023-02-12T06:38:07.950Z,10.77
2023-02-12T06:40:35.010Z,10.45
2023-02-12T06:43:02.159Z,11.07
2023-02-12T06:45:29.315Z,10.82
2023-02-12T06:47:56.414Z,10.95
2023-02-12T06:50:23.465Z,10.93
2023-02-12T06:52:50.629Z,11.98
2023-02-12T06:55:17.840Z,11.30
2023-02-12T06:57:44.894Z,10.20
2023-02-12T07:00:12.559Z,11.07
2023-02-12T07:02:39.820Z,11.45
2023-02-12T07:05:07.037Z,10.85
2023-02-12T07:07:34.165Z,11.82
2023-02-12T07:10:01.342Z,11.45
2023-02-12T07:12:28.569Z,10.85
2023-02-12T07:14:55.681Z,10.77
2023-02-12T07:17:22.781Z,10.93
2023-02-12T07:19:49.891Z,10.88
2023-02-12T07:22:17.036Z,11.50
2023-02-12T07:24:44.124Z,10.88
2023-02-12T07:27:11.188Z,11.70
2023-02-12T07:29:38.241Z,11.10
2023-02-12T07:32:05.480Z,10.18
2023-02-12T07:34:32.671Z,11.50
2023-02-12T07:36:59.825Z,10.82
2023-02-12T07:39:26.964Z,11.05
2023-02-12T07:41:54.080Z,10.60
2023-02-12T07:44:21.292Z,10.27
2023-02-12T07:46:49.423Z,11.07
2023-02-12T07:49:18.406Z,11.80
2023-02-12T07:51:45.743Z,10.27
2023-02-12T07:54:12.974Z,10.32
2023-02-12T07:56:41.086Z,11.05
2023-02-12T07:59:09.366Z,10.10
2023-02-12T08:01:37.720Z,10.85
2023-02-12T08:04:06.466Z,10.60
2023-02-12T08:06:34.898Z,10.43
2023-02-12T08:09:02.849Z,10.00
2023-02-12T08:11:30.709Z,10.57
2023-02-12T08:13:58.763Z,10.25
2023-02-12T08:16:26.902Z,9.93
2023-02-12T08:18:54.537Z,9.55
2023-02-12T08:21:22.990Z,9.65
2023-02-12T08:23:50.700Z,9.90
2023-02-12T08:26:22.311Z,9.75
2023-02-12T08:29:06.362Z,10.05
2023-02-12T08:31:35.221Z,9.77
2023-02-12T08:34:02.334Z,10.43
2023-02-12T08:36:31.047Z,9.48
2023-02-12T08:38:58.913Z,9.43
2023-02-12T08:41:27.770Z,9.60
2023-02-12T08:43:55.920Z,10.00
2023-02-12T08:46:24.435Z,9.50
2023-02-12T08:48:55.534Z,9.60
2023-02-12T08:51:27.082Z,9.73
2023-02-12T08:53:55.344Z,9.52
2023-02-12T08:56:22.806Z,9.90
2023-02-12T08:58:50.171Z,9.00
2023-02-12T09:01:27.331Z,9.57
2023-02-12T09:03:54.573Z,9.32
2023-02-12T09:06:22.503Z,10.25
2023-02-12T09:08:49.909Z,9.55
2023-02-12T09:11:18.571Z,8.65
2023-02-12T09:13:46.817Z,8.98
2023-02-12T09:16:14.619Z,9.20
2023-02-12T09:18:42.111Z,8.90
2023-02-12T09:21:11.916Z,8.50
2023-02-12T09:23:39.662Z,8.90
2023-02-12T09:26:07.842Z,8.48
2023-02-12T09:28:35.633Z,8.73
2023-02-12T09:31:06.886Z,8.15
2023-02-12T09:33:34.183Z,8.23
2023-02-12T09:36:02.752Z,8.60
2023-02-12T09:38:29.975Z,7.93
2023-02-12T09:41:06.632Z,7.47
2023-02-12T09:43:40.784Z,7.75
2023-02-12T09:46:13.926Z,7.72
2023-02-12T09:51:09.752Z,7.65
2023-02-12T09:53:41.259Z,7.50
2023-02-12T09:56:15.398Z,7.68
2023-02-12T09:58:45.133Z,7.88
2023-02-12T10:01:13.873Z,7.60
2023-02-12T10:03:41.227Z,7.70
2023-02-12T10:06:09.677Z,7.55
2023-02-12T10:08:45.900Z,7.55
2023-02-12T10:11:15.846Z,7.78
2023-02-12T10:13:56.840Z,7.32
2023-02-12T10:16:41.506Z,8.05
2023-02-12T10:19:21.427Z,7.43
2023-02-12T10:21:52.996Z,7.72
2023-02-12T10:24:20.054Z,7.70
2023-02-12T10:26:50.854Z,7.55
2023-02-12T10:29:19.599Z,8.30
2023-02-12T10:31:49.717Z,8.10
2023-02-12T10:34:21.617Z,8.82
2023-02-12T10:36:49.833Z,9.27
2023-02-12T10:39:21.620Z,8.85
2023-02-12T10:42:36.685Z,8.77
2023-02-12T10:45:04.036Z,9.00
2023-02-12T10:47:31.256Z,7.60
2023-02-12T10:50:03.336Z,8.05
2023-02-12T10:52:47.606Z,8.60
2023-02-12T10:55:32.191Z,8.77
2023-02-12T10:58:00.176Z,9.80
2023-02-12T11:00:31.336Z,9.13
2023-02-12T11:03:06.178Z,9.43
2023-02-12T11:05:35.862Z,9.93
2023-02-12T11:08:03.447Z,10.15
2023-02-12T11:10:32.009Z,9.93
2023-02-12T11:13:02.625Z,10.15
2023-02-12T11:15:46.715Z,10.60
2023-02-12T11:18:22.524Z,11.05
2023-02-12T11:20:51.122Z,11.30
2023-02-12T11:23:30.191Z,11.05
2023-02-12T11:26:02.397Z,11.27
2023-02-12T11:28:30.359Z,11.05
2023-02-12T11:31:02.577Z,10.07
2023-02-12T11:33:32.646Z,9.35
2023-02-12T11:36:01.820Z,9.90
2023-02-12T11:38:37.936Z,11.02
2023-02-12T11:41:09.615Z,10.57
2023-02-12T11:43:39.436Z,9.55
2023-02-12T11:46:08.585Z,10.75
2023-02-12T11:48:38.998Z,10.15
2023-02-12T11:51:09.043Z,9.93
2023-02-12T11:53:38.228Z,10.00
2023-02-12T11:56:08.216Z,10.27
2023-02-12T11:58:36.117Z,10.85
2023-02-12T12:01:09.598Z,10.43
2023-02-12T12:03:36.745Z,9.95
2023-02-12T12:06:15.152Z,10.02
2023-02-12T12:08:44.988Z,9.30
2023-02-12T12:11:12.756Z,10.43
2023-02-12T12:13:43.416Z,9.23
2023-02-12T12:16:35.155Z,9.57
2023-02-12T12:19:39.301Z,9.52
2023-02-12T12:22:44.108Z,9.32
2023-02-12T12:28:03.181Z,10.45
2023-02-12T12:30:42.462Z,10.07
2023-02-12T12:33:38.294Z,9.45
2023-02-12T12:36:14.544Z,8.85
2023-02-12T12:39:17.067Z,10.00
2023-02-12T12:42:02.555Z,10.65
2023-02-12T12:44:30.112Z,10.25
2023-02-12T12:47:03.670Z,9.10
2023-02-12T12:49:37.990Z,8.68
2023-02-12T12:52:10.978Z,8.35
2023-02-12T12:54:44.384Z,8.55
2023-02-12T12:59:56.361Z,7.78
2023-02-12T13:02:29.605Z,8.48
2023-02-12T13:05:19.807Z,7.80
2023-02-12T13:07:52.884Z,7.18
2023-02-12T13:10:24.400Z,7.85
2023-02-12T13:13:00.371Z,7.40
2023-02-12T13:15:30.211Z,7.60
2023-02-12T13:18:12.412Z,7.68
2023-02-12T13:20:51.451Z,7.43
2023-02-12T13:23:27.485Z,8.20
2023-02-12T13:25:54.953Z,8.68
2023-02-12T13:28:31.597Z,7.90
2023-02-12T13:30:59.977Z,8.00
2023-02-12T13:33:37.343Z,7.57
2023-02-12T13:36:06.776Z,8.27
2023-02-12T13:38:37.781Z,7.78
2023-02-12T13:41:10.141Z,7.43
2023-02-12T13:43:37.248Z,7.90
2023-02-12T13:46:04.441Z,8.05
2023-02-12T13:48:37.360Z,7.97
2023-02-12T13:51:04.451Z,7.60
2023-02-12T13:54:08.693Z,7.55
2023-02-12T13:56:44.912Z,7.30
2023-02-12T13:59:33.115Z,6.97
2023-02-12T14:02:02.341Z,7.50
2023-02-12T14:04:31.267Z,7.18
2023-02-12T14:07:01.583Z,7.80
2023-02-12T14:09:35.238Z,7.30
2023-02-12T14:12:03.277Z,6.70
2023-02-12T14:14:32.979Z,7.55
2023-02-12T14:17:20.083Z,6.53
2023-02-12T14:19:55.623Z,7.05
2023-02-12T14:22:25.420Z,6.90
2023-02-12T14:24:53.561Z,7.15
2023-02-12T14:27:24.234Z,7.00
2023-02-12T14:30:09.992Z,7.45
2023-02-12T14:35:31.308Z,8.40
2023-02-12T14:38:00.026Z,10.32
2023-02-12T14:40:43.981Z,9.15
2023-02-12T14:43:28.275Z,7.57
2023-02-12T14:46:00.042Z,7.30
2023-02-12T14:48:41.387Z,7.35
2023-02-12T14:51:15.219Z,7.28
2023-02-12T14:53:42.742Z,7.53
2023-02-12T14:56:11.112Z,7.32
2023-02-12T14:58:38.397Z,7.30
2023-02-12T15:01:05.589Z,7.35
2023-02-12T15:03:39.378Z,8.48
2023-02-12T15:06:17.905Z,8.38
2023-02-12T15:08:47.821Z,7.28
2023-02-12T15:11:21.699Z,7.85
2023-02-12T15:13:50.538Z,7.22
2023-02-12T15:16:22.252Z,8.35
2023-02-12T15:18:53.062Z,9.98
2023-02-12T15:21:23.470Z,9.48
2023-02-12T15:24:06.062Z,9.60
2023-02-12T15:26:35.251Z,8.93
2023-02-12T15:29:03.231Z,8.27
2023-02-12T15:31:31.447Z,7.85
2023-02-12T15:33:59.877Z,7.65
2023-02-12T15:36:28.420Z,7.82
2023-02-12T15:38:57.072Z,7.40
2023-02-12T15:41:29.877Z,7.72
2023-02-12T15:43:57.489Z,8.30
2023-02-12T15:46:25.108Z,8.10
2023-02-12T15:48:55.378Z,7.75
2023-02-12T15:51:35.894Z,7.43
2023-02-12T15:54:08.158Z,10.35
2023-02-12T15:59:06.440Z,20.55
2023-02-12T16:01:35.222Z,9.30
2023-02-12T16:04:03.827Z,8.93
2023-02-12T16:06:34.287Z,9.27
2023-02-12T16:09:09.722Z,9.05
2023-02-12T16:11:37.471Z,8.73
2023-02-12T16:14:05.688Z,8.88
2023-02-12T16:16:48.651Z,8.75
2023-02-12T16:19:23.031Z,8.50
2023-02-12T16:22:00.725Z,8.52
2023-02-12T16:24:29.644Z,8.20
2023-02-12T16:26:57.456Z,8.80
2023-02-12T16:29:24.880Z,8.93
2023-02-12T16:31:56.371Z,8.13
2023-02-12T16:34:27.898Z,7.28
2023-02-12T16:36:55.194Z,7.05
2023-02-12T16:39:53.775Z,7.15
2023-02-12T16:42:25.417Z,8.02
2023-02-12T16:44:52.840Z,8.07
2023-02-12T16:47:21.663Z,7.28
2023-02-12T16:49:56.457Z,6.57
2023-02-12T16:52:32.537Z,7.03
2023-02-12T16:54:59.702Z,7.55
2023-02-12T16:57:26.852Z,8.48
2023-02-12T16:59:54.011Z,8.88
2023-02-12T17:02:21.155Z,8.95
2023-02-12T17:04:48.222Z,9.95
2023-02-12T17:07:29.024Z,9.00
2023-02-12T17:09:56.278Z,10.68
2023-02-12T17:12:23.457Z,10.52
2023-02-12T17:14:50.614Z,9.57
2023-02-12T17:17:17.825Z,9.73
2023-02-12T17:19:44.927Z,9.90
2023-02-12T17:22:20.252Z,10.80
2023-02-12T17:24:51.354Z,11.75
2023-02-12T17:27:18.988Z,13.18
2023-02-12T17:29:46.139Z,14.15
2023-02-12T17:32:13.549Z,13.68
2023-02-12T17:34:48.497Z,12.80
2023-02-12T17:37:17.114Z,11.93
2023-02-12T17:39:44.353Z,10.77
2023-02-12T17:42:12.125Z,10.88
2023-02-12T17:44:39.944Z,11.13
2023-02-12T17:47:07.084Z,10.30
2023-02-12T17:49:35.427Z,11.25
2023-02-12T17:52:04.786Z,11.93
2023-02-12T17:54:33.607Z,11.93
2023-02-12T17:57:00.693Z,10.93
2023-02-12T17:59:27.857Z,11.45
2023-02-12T18:01:54.992Z,10.55
2023-02-12T18:04:22.158Z,8.80
2023-02-12T18:06:49.332Z,10.60
2023-02-12T18:09:16.493Z,9.77
2023-02-12T18:11:43.611Z,10.80
2023-02-12T18:14:11.640Z,11.43
2023-02-12T18:16:38.776Z,9.85
2023-02-12T18:19:06.215Z,10.10
2023-02-12T18:21:34.972Z,11.10
2023-02-12T18:24:02.490Z,10.82
2023-02-12T18:26:29.578Z,13.70
2023-02-12T18:29:00.216Z,12.30
2023-02-12T18:31:27.496Z,11.05
2023-02-12T18:33:54.793Z,10.82
2023-02-12T18:36:22.891Z,11.63
2023-02-12T18:38:51.221Z,11.23
2023-02-12T18:41:20.224Z,11.32
2023-02-12T18:43:47.904Z,11.68
2023-02-12T18:46:16.463Z,11.18
2023-02-12T18:48:43.963Z,11.65
2023-02-12T18:51:13.910Z,11.45
2023-02-12T18:53:41.019Z,10.02
2023-02-12T18:56:09.271Z,10.48
2023-02-12T18:58:36.977Z,10.32
2023-02-12T19:01:18.000Z,10.57
2023-02-12T19:03:45.709Z,13.00
2023-02-12T19:06:13.106Z,12.25
2023-02-12T19:08:40.318Z,11.32
2023-02-12T19:11:08.510Z,11.25
2023-02-12T19:13:35.889Z,11.70
2023-02-12T19:16:07.353Z,11.57
2023-02-12T19:18:34.442Z,10.52
2023-02-12T19:21:06.033Z,9.90
2023-02-12T19:23:33.096Z,9.85
2023-02-12T19:26:18.002Z,9.82
2023-02-12T19:28:45.182Z,10.75
2023-02-12T19:31:15.319Z,9.85
2023-02-12T19:33:43.433Z,10.43
2023-02-12T19:36:11.665Z,11.45
2023-02-12T19:38:39.211Z,11.10
2023-02-12T19:41:07.305Z,10.10
2023-02-12T19:43:34.480Z,10.38
2023-02-12T19:46:09.062Z,10.38
2023-02-12T19:48:36.708Z,11.40
2023-02-12T19:51:04.012Z,10.40
2023-02-12T19:53:31.167Z,10.90
2023-02-12T19:56:01.496Z,11.90
2023-02-12T19:58:29.256Z,11.65
2023-02-12T20:00:56.632Z,12.30
2023-02-12T20:03:23.871Z,12.15
2023-02-12T20:05:53.102Z,12.50
2023-02-12T20:08:20.404Z,12.93
2023-02-12T20:10:47.544Z,12.55
2023-02-12T20:13:14.621Z,14.75
2023-02-12T20:15:41.675Z,12.57
2023-02-12T20:18:08.849Z,13.48
2023-02-12T20:20:36.266Z,12.85
2023-02-12T20:23:03.398Z,13.35
2023-02-12T20:25:30.981Z,12.20
2023-02-12T20:27:58.277Z,12.73
2023-02-12T20:30:25.719Z,12.18
2023-02-12T20:32:52.868Z,11.20
2023-02-12T20:35:20.043Z,12.45
2023-02-12T20:37:47.182Z,12.32
2023-02-12T20:40:14.295Z,11.80
2023-02-12T20:42:41.414Z,12.20
2023-02-12T20:45:08.782Z,13.32
2023-02-12T20:47:35.868Z,12.80
2023-02-12T20:50:04.226Z,12.27
2023-02-12T20:52:32.043Z,11.95
2023-02-12T20:54:59.108Z,12.73
2023-02-12T20:57:26.372Z,12.35
2023-02-12T20:59:53.423Z,12.13
2023-02-12T21:02:20.659Z,11.70
2023-02-12T21:04:47.723Z,11.18
2023-02-12T21:07:14.886Z,13.18
2023-02-12T21:09:42.012Z,13.05
2023-02-12T21:12:09.143Z,11.80
2023-02-12T21:14:36.351Z,13.02
2023-02-12T21:17:03.439Z,12.90
2023-02-12T21:19:30.506Z,12.68
2023-02-12T21:21:57.669Z,13.13
2023-02-12T21:24:25.871Z,13.68
2023-02-12T21:26:54.029Z,12.98
2023-02-12T21:29:21.184Z,13.30
2023-02-12T21:31:49.217Z,13.05
2023-02-12T21:34:17.489Z,14.13
2023-02-12T21:36:45.559Z,14.30
2023-02-12T21:39:14.151Z,15.63
2023-02-12T21:41:42.158Z,15.52
2023-02-12T21:44:11.949Z,15.35
2023-02-12T21:46:39.308Z,15.95
2023-02-12T21:49:06.746Z,15.88
2023-02-12T21:51:38.004Z,15.73
2023-02-12T21:54:15.295Z,14.43
2023-02-12T21:56:43.779Z,14.82
2023-02-12T21:59:11.340Z,13.52
2023-02-12T22:01:42.658Z,13.95
2023-02-12T22:04:10.142Z,12.70
2023-02-12T22:06:38.404Z,12.68
2023-02-12T22:09:09.108Z,12.25
2023-02-12T22:11:40.315Z,13.02
2023-02-12T22:14:08.283Z,13.60
2023-02-12T22:16:36.090Z,12.68
2023-02-12T22:19:04.163Z,14.02
2023-02-12T22:21:33.144Z,13.68
2023-02-12T22:24:04.351Z,12.32
2023-02-12T22:26:32.009Z,13.10
2023-02-12T22:29:00.355Z,14.05
2023-02-12T22:31:29.261Z,13.45
2023-02-12T22:33:58.402Z,13.38
2023-02-12T22:36:26.185Z,13.93
2023-02-12T22:38:54.421Z,13.70
2023-02-12T22:41:21.970Z,12.40
2023-02-12T22:43:49.402Z,13.20
2023-02-12T22:46:16.916Z,12.23
2023-02-12T22:48:44.269Z,12.55
2023-02-12T22:51:18.627Z,13.43
2023-02-12T22:53:45.749Z,13.45
2023-02-12T22:56:12.964Z,13.13
2023-02-12T22:58:40.475Z,12.25
2023-02-12T23:01:14.987Z,12.30
2023-02-12T23:03:42.632Z,13.70
2023-02-12T23:06:11.781Z,12.15
2023-02-12T23:08:38.878Z,11.30
2023-02-12T23:11:07.180Z,12.40
2023-02-12T23:13:35.955Z,12.00
2023-02-12T23:16:03.287Z,11.18
2023-02-12T23:18:30.425Z,11.90
2023-02-12T23:20:58.040Z,12.35
2023-02-12T23:23:25.333Z,12.77
2023-02-12T23:25:54.300Z,11.88
2023-02-12T23:28:21.731Z,11.95
2023-02-12T23:30:49.744Z,12.15
2023-02-12T23:33:16.992Z,11.30
2023-02-12T23:35:44.918Z,12.35
2023-02-12T23:38:12.126Z,11.60
2023-02-12T23:40:39.229Z,11.60
2023-02-12T23:43:06.396Z,10.60
2023-02-12T23:45:33.511Z,11.10
2023-02-12T23:48:00.588Z,11.73
2023-02-12T23:50:27.658Z,11.63
2023-02-12T23:52:54.759Z,11.20
2023-02-12T23:55:21.929Z,11.38
2023-02-12T23:57:50.424Z,10.52
